ESGGESMS

Guest
Details From ESGG - Goteborg Landvetter
To ESMS - Malmo Sturup
Flight Number -
Tags generated
Created
Modified
Stats Distance 133 nm / 247 km
Max Altitude 8,100 ft / 2,469 m
Waypoints 3
Social Downloads 3
Likes 0
Share VATSIM

Download

Looking for another format? Having issues loading an existing format? Contact us
Advertisement - Login to hide

Notes

Basic altitude profile: - Ascent Rate: 2500ft/min - Ascent Speed: 250kts - Cruise Altitude: 35000ft - Cruise Speed: 420kts - Descent Rate: 1500ft/min - Descent Speed: 250kts Options: - Use NATs: yes - Use PACOTS: yes - Use low airways: yes - Use high airways: yes

Route

ESGG ASTOS ESMS

ID Type Via Altitude Latitude Longitude Leg Dist Tot Dist Heading (true) Name
O ESGG APT - 0 ft / 0 m 57.66284˚ 12.27982˚ - 0 nm - Goteborg Landvetter
ASTOS FIX - 8,100 ft / 2,469 m 56.12047˚ 12.96125˚ 95 nm 95 nm 166° / 167° -
O ESMS APT - 0 ft / 0 m 55.52888˚ 13.37111˚ 38 nm 133 nm 159° / 159° Malmo Sturup

Altitude Profile

Advertisement - Login to hide

ESGG

Details ICAO ESGG (GOT)
Name Goteborg Landvetter
Region Sweden
Timezone Europe/Stockholm (UTC+2.0)
Stats Elevation 506 ft / 154 m (AMSL)
Location 57.662836° 12.279819°
Runways 1
Magnetic Variation 3.783° E

METAR

ESGG 212020Z 34005KT 320V030 CAVOK 15/06 Q1023

Decode

TAF

TAF TAF ESGG 211730Z 2118/2218 VRB02KT CAVOK

Decode

Departure Runways

ID Width Length Bearing (true) Bearing (mag) Surface Threshold Offset Overrun Length
03 148 ft / 45 m 10,804 ft / 3,293 m 25.94° 22.16° Asphalt 0 ft / 0 m 207 ft / 63 m
21 148 ft / 45 m 10,804 ft / 3,293 m 205.96° 202.18° Asphalt 0 ft / 0 m 207 ft / 63 m

ESMS

Details ICAO ESMS (MMX)
Name Malmo Sturup
Region Sweden
Timezone Europe/Stockholm (UTC+2.0)
Stats Elevation 236 ft / 72 m (AMSL)
Location 55.528883° 13.371109°
Runways 2
Magnetic Variation 4.027° E

METAR

ESMS 212020Z 08005KT CAVOK 12/04 Q1022

Decode

TAF

TAF ESMS 211651Z 2118/2218 10010KT CAVOK

Decode

Destination Runways

ID Width Length Bearing (true) Bearing (mag) Surface Threshold Offset Overrun Length
11 59 ft / 18 m 2,609 ft / 795 m 105.31° 101.28° Asphalt 0 ft / 0 m 0 ft / 0 m
17 148 ft / 45 m 9,176 ft / 2,797 m 173.36° 169.33° Asphalt 0 ft / 0 m 98 ft / 30 m
29 59 ft / 18 m 2,609 ft / 795 m 285.32° 281.29° Asphalt 0 ft / 0 m 0 ft / 0 m
35 148 ft / 45 m 9,176 ft / 2,797 m 353.37° 349.34° Asphalt 0 ft / 0 m 98 ft / 30 m

Approach Navaids

Runway Type Ident Frequency Range Bearing (true) Bearing (mag) Slope Elevation
17 Localiser NMS 111.90 MHz 18 nm / 33 km 173.37° 169.34° - 236 ft / 72 m (AMSL)
17 Glidescope NMS 111.90 MHz 10 nm / 19 km 173.37° 169.34° 3.00° 236 ft / 72 m (AMSL)
35 Localiser SMS 108.10 MHz 18 nm / 33 km 353.36° 349.33° - 236 ft / 72 m (AMSL)
35 Glidescope SMS 108.10 MHz 10 nm / 19 km 353.37° 349.34° 3.00° 236 ft / 72 m (AMSL)

Popular Alternatives